createdAt,value
2019-03-31T00:00:15.525Z,5.89
2019-03-31T00:02:44.390Z,5.76
2019-03-31T00:05:13.236Z,5.73
2019-03-31T00:07:42.195Z,5.71
2019-03-31T00:10:11.015Z,5.53
2019-03-31T00:12:39.932Z,5.47
2019-03-31T00:15:08.896Z,5.43
2019-03-31T00:17:37.743Z,5.42
2019-03-31T00:20:06.626Z,5.43
2019-03-31T00:22:35.534Z,5.41
2019-03-31T00:25:05.665Z,5.43
2019-03-31T00:27:34.511Z,5.38
2019-03-31T00:30:03.455Z,5.28
2019-03-31T00:32:32.314Z,5.25
2019-03-31T00:35:01.404Z,5.25
2019-03-31T00:37:30.245Z,5.28
2019-03-31T00:39:59.084Z,5.27
2019-03-31T00:42:27.919Z,5.21
2019-03-31T00:44:56.766Z,5.24
2019-03-31T00:47:25.621Z,5.23
2019-03-31T00:49:54.451Z,5.11
2019-03-31T00:52:23.430Z,5.06
2019-03-31T00:54:52.342Z,4.98
2019-03-31T00:57:21.171Z,5.02
2019-03-31T00:59:49.999Z,4.97
2019-03-31T01:02:20.505Z,4.92
2019-03-31T01:04:49.325Z,4.79
2019-03-31T01:07:18.287Z,4.80
2019-03-31T01:09:47.253Z,4.70
2019-03-31T01:12:16.391Z,4.58
2019-03-31T01:14:45.250Z,4.58
2019-03-31T01:17:14.863Z,4.63
2019-03-31T01:19:43.703Z,4.63
2019-03-31T01:22:12.542Z,4.52
2019-03-31T01:24:41.382Z,4.57
2019-03-31T01:27:10.563Z,4.61
2019-03-31T01:29:39.400Z,4.69
2019-03-31T01:32:08.236Z,4.55
2019-03-31T01:34:37.069Z,4.55
2019-03-31T01:37:06.315Z,4.66
2019-03-31T01:39:35.470Z,4.66
2019-03-31T01:42:04.313Z,4.50
2019-03-31T01:44:33.131Z,4.45
2019-03-31T01:47:01.979Z,4.18
2019-03-31T01:49:30.854Z,4.31
2019-03-31T01:51:59.761Z,4.25
2019-03-31T01:54:28.611Z,4.28
2019-03-31T01:56:57.391Z,4.06
2019-03-31T01:59:26.240Z,4.00
2019-03-31T02:02:04.101Z,4.15
2019-03-31T02:04:25.744Z,4.13
2019-03-31T02:06:54.532Z,3.94
2019-03-31T02:09:23.380Z,3.81
2019-03-31T02:11:52.174Z,3.95
2019-03-31T02:14:21.000Z,3.93
2019-03-31T02:16:49.873Z,3.86
2019-03-31T02:19:18.705Z,3.60
2019-03-31T02:21:47.487Z,3.47
2019-03-31T02:24:16.311Z,3.63
2019-03-31T02:26:45.153Z,3.50
2019-03-31T02:29:14.005Z,3.45
2019-03-31T02:31:42.853Z,3.61
2019-03-31T02:34:11.707Z,3.71
2019-03-31T02:36:40.557Z,3.59
2019-03-31T02:39:09.614Z,3.56
2019-03-31T02:41:38.390Z,3.69
2019-03-31T02:44:07.147Z,3.60
2019-03-31T02:46:35.987Z,3.50
2019-03-31T02:49:04.864Z,3.51
2019-03-31T02:51:33.701Z,3.59
2019-03-31T02:54:02.538Z,3.63
2019-03-31T02:56:32.669Z,3.68
2019-03-31T02:59:02.252Z,3.82
2019-03-31T03:01:32.888Z,3.71
2019-03-31T03:04:07.717Z,3.66
2019-03-31T03:06:35.920Z,3.75
2019-03-31T03:09:06.655Z,3.75
2019-03-31T03:11:35.820Z,3.70
2019-03-31T03:14:06.061Z,3.70
2019-03-31T03:16:35.178Z,3.63
2019-03-31T03:19:04.013Z,3.57
2019-03-31T03:21:32.846Z,3.56
2019-03-31T03:24:01.708Z,3.55
2019-03-31T03:26:30.559Z,3.61
2019-03-31T03:28:59.382Z,3.65
2019-03-31T03:31:28.201Z,3.61
2019-03-31T03:33:57.048Z,3.72
2019-03-31T03:36:25.884Z,3.81
2019-03-31T03:38:54.722Z,3.75
2019-03-31T03:41:23.577Z,3.68
2019-03-31T03:43:59.673Z,3.63
2019-03-31T03:46:22.982Z,3.68
2019-03-31T03:48:51.887Z,3.77
2019-03-31T03:51:20.764Z,3.79
2019-03-31T03:53:49.599Z,3.60
2019-03-31T03:56:18.452Z,3.60
2019-03-31T03:58:47.208Z,3.60
2019-03-31T04:01:17.606Z,3.59
2019-03-31T04:03:46.447Z,3.62
2019-03-31T04:06:15.282Z,3.65
2019-03-31T04:08:44.119Z,3.61
2019-03-31T04:11:20.602Z,3.49
2019-03-31T04:13:46.325Z,3.46
2019-03-31T04:16:15.126Z,3.50
2019-03-31T04:18:44.075Z,3.57
2019-03-31T04:21:13.062Z,3.60
2019-03-31T04:23:41.979Z,3.66
2019-03-31T04:26:10.786Z,3.92
2019-03-31T04:28:39.575Z,4.11
2019-03-31T04:31:08.364Z,4.33
2019-03-31T04:33:50.511Z,4.28
2019-03-31T04:36:07.662Z,4.45
2019-03-31T04:38:36.520Z,4.82
2019-03-31T04:41:05.471Z,4.88
2019-03-31T04:43:34.332Z,4.93
2019-03-31T04:46:03.174Z,4.92
2019-03-31T04:48:32.010Z,5.15
2019-03-31T04:51:00.850Z,5.13
2019-03-31T04:53:29.792Z,5.10
2019-03-31T04:55:58.699Z,5.14
2019-03-31T04:58:27.464Z,5.13
2019-03-31T05:00:56.374Z,5.29
2019-03-31T05:03:25.208Z,5.38
2019-03-31T05:05:54.069Z,5.57
2019-03-31T05:08:22.827Z,5.84
2019-03-31T05:10:51.759Z,5.64
2019-03-31T05:13:25.636Z,5.81
2019-03-31T05:15:54.099Z,5.92
2019-03-31T05:18:22.942Z,6.02
2019-03-31T05:20:51.787Z,6.08
2019-03-31T05:23:20.617Z,5.98
2019-03-31T05:25:49.530Z,6.11
2019-03-31T05:28:18.266Z,6.31
2019-03-31T05:30:47.182Z,6.51
2019-03-31T05:33:16.191Z,6.63
2019-03-31T05:35:45.619Z,7.01
2019-03-31T05:38:14.450Z,7.16
2019-03-31T05:40:43.217Z,7.35
2019-03-31T05:43:12.651Z,7.52
2019-03-31T05:45:42.130Z,7.64
2019-03-31T05:48:11.502Z,7.77
2019-03-31T05:50:40.873Z,7.99
2019-03-31T05:53:10.209Z,8.13
2019-03-31T05:55:39.659Z,8.57
2019-03-31T05:58:09.068Z,8.76
2019-03-31T06:00:40.682Z,9.13
2019-03-31T06:03:10.242Z,9.23
2019-03-31T06:05:39.642Z,9.25
2019-03-31T06:08:09.083Z,9.62
2019-03-31T06:10:38.542Z,9.97
2019-03-31T06:13:08.047Z,9.98
2019-03-31T06:15:37.525Z,10.10
2019-03-31T06:18:06.941Z,10.49
2019-03-31T06:20:36.462Z,10.78
2019-03-31T06:23:06.065Z,10.72
2019-03-31T06:25:35.570Z,10.68
2019-03-31T06:28:05.044Z,10.91
2019-03-31T06:30:34.560Z,11.19
2019-03-31T06:33:04.045Z,11.38
2019-03-31T06:35:33.455Z,11.52
2019-03-31T06:38:02.876Z,11.76
2019-03-31T06:40:32.346Z,12.01
2019-03-31T06:43:01.745Z,12.19
2019-03-31T06:45:31.194Z,12.07
2019-03-31T06:48:00.698Z,12.34
2019-03-31T06:50:30.144Z,12.53
2019-03-31T06:52:59.590Z,12.43
2019-03-31T06:55:29.052Z,12.39
2019-03-31T06:57:58.468Z,12.72
2019-03-31T07:00:27.975Z,12.45
2019-03-31T07:02:57.472Z,12.80
2019-03-31T07:05:26.999Z,12.99
2019-03-31T07:07:56.458Z,13.31
2019-03-31T07:10:25.910Z,13.26
2019-03-31T07:12:55.398Z,13.33
2019-03-31T07:15:24.906Z,13.73
2019-03-31T07:17:54.333Z,13.84
2019-03-31T07:20:23.788Z,14.06
2019-03-31T07:22:53.298Z,14.12
2019-03-31T07:25:22.991Z,14.16
2019-03-31T07:27:52.476Z,14.12
2019-03-31T07:30:22.471Z,14.17
2019-03-31T07:32:51.978Z,14.38
2019-03-31T07:35:21.572Z,14.58
2019-03-31T07:37:51.025Z,14.73
2019-03-31T07:40:22.103Z,14.88
2019-03-31T07:42:51.603Z,15.18
2019-03-31T07:45:21.190Z,15.51
2019-03-31T07:47:51.067Z,15.87
2019-03-31T07:50:20.980Z,15.99
2019-03-31T07:52:50.444Z,15.96
2019-03-31T07:55:20.198Z,16.35
2019-03-31T07:57:49.659Z,16.54
2019-03-31T08:00:21.702Z,16.57
2019-03-31T08:02:51.201Z,16.65
2019-03-31T08:05:32.394Z,16.43
2019-03-31T08:07:51.855Z,16.49
2019-03-31T08:10:21.605Z,16.82
2019-03-31T08:12:51.312Z,17.18
2019-03-31T08:15:20.831Z,17.46
2019-03-31T08:17:50.414Z,17.21
2019-03-31T08:20:20.266Z,17.70
2019-03-31T08:22:49.728Z,17.77
2019-03-31T08:25:19.265Z,18.02
2019-03-31T08:27:48.748Z,18.17
2019-03-31T08:30:19.990Z,18.27
2019-03-31T08:32:49.433Z,17.97
2019-03-31T08:35:20.734Z,17.94
2019-03-31T08:37:50.240Z,18.38
2019-03-31T08:40:19.852Z,18.82
2019-03-31T08:42:49.310Z,19.17
2019-03-31T08:45:18.802Z,18.75
2019-03-31T08:47:48.259Z,19.29
2019-03-31T08:50:17.998Z,18.75
2019-03-31T08:52:47.474Z,18.49
2019-03-31T08:55:16.927Z,19.59
2019-03-31T08:57:46.365Z,19.70
2019-03-31T09:00:17.780Z,19.90
2019-03-31T09:02:47.212Z,19.79
2019-03-31T09:05:16.681Z,19.95
2019-03-31T09:07:46.116Z,20.33
2019-03-31T09:10:15.831Z,20.78
2019-03-31T09:12:48.331Z,20.88
2019-03-31T09:15:16.506Z,20.79
2019-03-31T09:17:45.973Z,20.59
2019-03-31T09:20:15.989Z,20.84
2019-03-31T09:22:45.402Z,20.67
2019-03-31T09:25:14.892Z,20.85
2019-03-31T09:27:44.477Z,20.50
2019-03-31T09:30:14.218Z,20.57
2019-03-31T09:32:43.773Z,20.58
2019-03-31T09:35:13.267Z,20.48
2019-03-31T09:37:42.743Z,19.95
2019-03-31T09:40:12.517Z,20.39
2019-03-31T09:42:41.961Z,20.68
2019-03-31T09:45:11.966Z,20.78
2019-03-31T09:47:41.450Z,20.98
2019-03-31T09:50:16.836Z,21.25
2019-03-31T09:52:44.231Z,21.12
2019-03-31T09:55:13.914Z,21.42
2019-03-31T09:57:43.424Z,21.70
2019-03-31T10:00:18.363Z,21.83
2019-03-31T10:02:47.852Z,21.83
2019-03-31T10:05:17.357Z,22.40
2019-03-31T10:07:46.793Z,22.27
2019-03-31T10:10:22.002Z,22.27
2019-03-31T10:12:51.557Z,22.42
2019-03-31T10:15:21.009Z,22.01
2019-03-31T10:17:50.479Z,22.01
2019-03-31T10:20:20.076Z,21.94
2019-03-31T10:22:49.527Z,22.05
2019-03-31T10:25:18.982Z,21.45
2019-03-31T10:27:48.435Z,21.45
2019-03-31T10:30:33.091Z,21.64
2019-03-31T10:33:02.665Z,21.64
2019-03-31T10:35:32.409Z,22.44
2019-03-31T10:38:02.529Z,22.44
2019-03-31T10:40:32.196Z,22.24
2019-03-31T10:43:01.683Z,23.18
2019-03-31T10:45:31.188Z,23.18
2019-03-31T10:48:00.628Z,23.19
2019-03-31T10:50:30.047Z,22.83
2019-03-31T10:52:59.506Z,22.83
2019-03-31T10:55:29.107Z,23.02
2019-03-31T10:57:58.544Z,23.33
2019-03-31T11:00:38.274Z,23.42
2019-03-31T11:03:08.620Z,23.83
2019-03-31T11:05:38.201Z,23.66
2019-03-31T11:08:07.786Z,23.52
2019-03-31T11:10:37.429Z,23.52
2019-03-31T11:13:07.225Z,23.88
2019-03-31T11:15:36.645Z,23.88
2019-03-31T11:18:06.117Z,24.49
2019-03-31T11:20:35.583Z,24.49
2019-03-31T11:25:57.984Z,23.41
2019-03-31T11:28:27.487Z,23.41
2019-03-31T11:30:56.992Z,24.86
2019-03-31T11:33:26.659Z,24.86
2019-03-31T11:35:56.164Z,25.00
2019-03-31T11:38:25.594Z,24.00
2019-03-31T11:40:55.072Z,24.29
2019-03-31T11:43:24.206Z,24.29
2019-03-31T11:45:53.669Z,24.76
2019-03-31T11:48:23.201Z,24.76
2019-03-31T11:50:52.308Z,24.33
2019-03-31T11:53:21.778Z,25.51
2019-03-31T11:55:51.217Z,24.45
2019-03-31T11:58:20.354Z,24.45
2019-03-31T12:00:51.061Z,24.37
2019-03-31T12:03:20.247Z,24.37
2019-03-31T12:05:49.633Z,25.06
2019-03-31T12:08:19.079Z,25.02
2019-03-31T12:10:48.275Z,25.02
2019-03-31T12:13:17.682Z,25.19
2019-03-31T12:15:46.940Z,25.41
2019-03-31T12:18:16.148Z,25.20
2019-03-31T12:20:45.376Z,25.37
2019-03-31T12:23:14.635Z,25.26
2019-03-31T12:25:45.674Z,25.47
2019-03-31T12:28:14.854Z,25.58
2019-03-31T12:30:43.945Z,25.76
2019-03-31T12:33:13.077Z,26.12
2019-03-31T12:35:42.200Z,25.64
2019-03-31T12:38:11.476Z,25.56
2019-03-31T12:40:43.916Z,25.60
2019-03-31T12:43:13.148Z,25.29
2019-03-31T12:45:43.353Z,25.29
2019-03-31T12:48:12.758Z,24.90
2019-03-31T12:50:42.236Z,24.56
2019-03-31T12:53:11.400Z,24.56
2019-03-31T12:55:40.849Z,23.84
2019-03-31T12:58:10.398Z,24.46
2019-03-31T13:00:39.570Z,24.28
2019-03-31T13:03:09.070Z,24.28
2019-03-31T13:05:38.556Z,24.64
2019-03-31T13:08:08.124Z,24.40
2019-03-31T13:10:37.665Z,24.16
2019-03-31T13:13:06.809Z,24.16
2019-03-31T13:15:35.994Z,25.12
2019-03-31T13:18:05.525Z,24.50
2019-03-31T13:20:34.873Z,23.90
2019-03-31T13:23:04.063Z,24.58
2019-03-31T13:25:33.531Z,24.58
2019-03-31T13:28:05.492Z,24.08
2019-03-31T13:30:34.119Z,24.08
2019-03-31T13:33:03.636Z,24.43
2019-03-31T13:35:33.128Z,24.43
2019-03-31T13:38:10.898Z,24.40
2019-03-31T13:40:33.780Z,24.50
2019-03-31T13:43:03.061Z,24.50
2019-03-31T13:45:32.544Z,24.00
2019-03-31T13:48:02.083Z,23.57
2019-03-31T13:50:31.645Z,24.44
2019-03-31T13:53:01.225Z,24.44
2019-03-31T13:55:30.836Z,24.54
2019-03-31T13:58:02.669Z,24.34
2019-03-31T14:00:37.318Z,23.81
2019-03-31T14:03:06.956Z,24.06
2019-03-31T14:05:36.056Z,24.06
2019-03-31T14:08:05.804Z,24.46
2019-03-31T14:10:38.736Z,24.03
2019-03-31T14:13:15.548Z,24.03
2019-03-31T14:15:45.145Z,24.19
2019-03-31T14:18:17.155Z,24.49
2019-03-31T14:20:50.027Z,24.11
2019-03-31T14:23:30.590Z,24.07
2019-03-31T14:26:00.855Z,23.16
2019-03-31T14:28:30.826Z,23.16
2019-03-31T14:31:01.416Z,23.37
2019-03-31T14:33:31.293Z,23.88
2019-03-31T14:36:02.607Z,23.88
2019-03-31T14:38:39.930Z,23.15
2019-03-31T14:41:06.402Z,23.15
2019-03-31T14:43:38.790Z,23.17
2019-03-31T14:46:08.218Z,22.93
2019-03-31T14:48:37.849Z,22.96
2019-03-31T14:51:07.338Z,23.13
2019-03-31T14:53:36.860Z,22.55
2019-03-31T14:56:06.328Z,22.55
2019-03-31T14:58:35.736Z,23.27
2019-03-31T15:01:05.335Z,23.27
2019-03-31T15:03:34.824Z,23.20
2019-03-31T15:06:04.318Z,22.86
2019-03-31T15:08:33.805Z,22.96
2019-03-31T15:11:03.262Z,22.96
2019-03-31T15:13:32.815Z,22.95
2019-03-31T15:16:02.302Z,23.10
2019-03-31T15:18:31.803Z,23.10
2019-03-31T15:21:01.271Z,22.79
2019-03-31T15:23:30.721Z,22.79
2019-03-31T15:26:00.382Z,22.56
2019-03-31T15:28:29.889Z,22.77
2019-03-31T15:30:59.335Z,23.14
2019-03-31T15:33:28.809Z,23.41
2019-03-31T15:35:58.241Z,23.13
2019-03-31T15:38:27.678Z,23.13
2019-03-31T15:40:57.239Z,23.26
2019-03-31T15:43:26.647Z,23.34
2019-03-31T15:45:56.096Z,23.21
2019-03-31T15:48:25.777Z,23.03
2019-03-31T15:50:55.798Z,23.03
2019-03-31T15:53:25.354Z,22.88
2019-03-31T15:55:54.809Z,22.53
2019-03-31T15:58:24.396Z,21.39
2019-03-31T16:00:53.902Z,20.88
2019-03-31T16:03:23.377Z,20.88
2019-03-31T16:05:52.869Z,20.66
2019-03-31T16:08:22.312Z,20.41
2019-03-31T16:10:51.719Z,20.31
2019-03-31T16:13:21.183Z,20.07
2019-03-31T16:15:50.623Z,19.93
2019-03-31T16:18:20.197Z,19.96
2019-03-31T16:20:49.764Z,19.81
2019-03-31T16:23:19.339Z,19.63
2019-03-31T16:25:50.352Z,19.55
2019-03-31T16:28:19.779Z,19.44
2019-03-31T16:30:49.261Z,19.26
2019-03-31T16:33:18.702Z,18.87
2019-03-31T16:35:48.253Z,18.66
2019-03-31T16:38:17.788Z,18.50
2019-03-31T16:40:47.276Z,18.28
2019-03-31T16:43:16.740Z,18.19
2019-03-31T16:45:46.199Z,18.09
2019-03-31T16:48:15.659Z,17.99
2019-03-31T16:50:45.161Z,17.79
2019-03-31T16:53:14.630Z,17.71
2019-03-31T16:55:44.131Z,17.53
2019-03-31T16:58:16.383Z,17.44
2019-03-31T17:00:45.930Z,17.29
2019-03-31T17:03:18.242Z,17.10
2019-03-31T17:05:46.747Z,16.95
2019-03-31T17:08:16.193Z,16.90
2019-03-31T17:10:45.677Z,16.81
2019-03-31T17:13:15.290Z,16.77
2019-03-31T17:15:44.965Z,16.71
2019-03-31T17:18:14.515Z,16.60
2019-03-31T17:20:44.181Z,16.59
2019-03-31T17:23:13.682Z,16.43
2019-03-31T17:25:43.200Z,16.24
2019-03-31T17:28:12.636Z,16.22
2019-03-31T17:30:42.204Z,16.18
2019-03-31T17:33:11.683Z,16.02
2019-03-31T17:35:41.245Z,15.97
2019-03-31T17:38:11.003Z,15.94
2019-03-31T17:40:40.472Z,15.84
2019-03-31T17:43:16.206Z,15.77
2019-03-31T17:45:41.376Z,15.70
2019-03-31T17:48:10.841Z,15.62
2019-03-31T17:50:40.392Z,15.48
2019-03-31T17:53:09.892Z,15.32
2019-03-31T17:55:39.481Z,15.27
2019-03-31T17:58:08.989Z,15.22
2019-03-31T18:00:38.465Z,15.14
2019-03-31T18:03:07.965Z,15.02
2019-03-31T18:05:37.469Z,14.84
2019-03-31T18:08:07.066Z,14.66
2019-03-31T18:10:36.554Z,14.69
2019-03-31T18:13:06.040Z,14.85
2019-03-31T18:15:35.530Z,14.82
2019-03-31T18:18:05.034Z,14.88
2019-03-31T18:20:34.491Z,14.99
2019-03-31T18:23:04.097Z,15.00
2019-03-31T18:25:33.542Z,15.01
2019-03-31T18:28:03.051Z,14.98
2019-03-31T18:30:32.565Z,14.95
2019-03-31T18:33:02.059Z,14.83
2019-03-31T18:35:31.638Z,14.77
2019-03-31T18:38:01.213Z,14.68
2019-03-31T18:40:35.342Z,14.59
2019-03-31T18:43:02.117Z,14.53
2019-03-31T18:45:31.740Z,14.40
2019-03-31T18:48:01.494Z,14.40
2019-03-31T18:50:31.114Z,14.36
2019-03-31T18:53:00.764Z,14.34
2019-03-31T18:55:34.656Z,14.31
2019-03-31T18:58:14.719Z,14.27
2019-03-31T19:01:04.135Z,14.29
2019-03-31T19:03:35.197Z,14.22
2019-03-31T19:06:22.219Z,14.08
2019-03-31T19:08:53.245Z,14.05
2019-03-31T19:11:31.414Z,13.95
2019-03-31T19:14:17.551Z,13.90
2019-03-31T19:16:51.759Z,13.84
2019-03-31T19:22:25.758Z,13.77
2019-03-31T19:25:00.083Z,13.76
2019-03-31T19:27:37.128Z,13.72
2019-03-31T19:30:15.437Z,13.69
2019-03-31T19:33:00.798Z,13.60
2019-03-31T19:35:33.482Z,13.54
2019-03-31T19:38:07.473Z,13.35
2019-03-31T19:40:47.053Z,13.24
2019-03-31T19:43:30.107Z,12.97
2019-03-31T19:46:01.163Z,12.89
2019-03-31T19:48:41.332Z,12.78
2019-03-31T19:51:29.010Z,12.72
2019-03-31T19:54:00.049Z,12.62
2019-03-31T19:56:47.604Z,12.53
2019-03-31T19:59:24.493Z,12.43
2019-03-31T20:01:55.525Z,12.36
2019-03-31T20:04:29.524Z,12.44
2019-03-31T20:07:16.831Z,12.45
2019-03-31T20:09:47.870Z,12.51
2019-03-31T20:12:28.195Z,12.52
2019-03-31T20:15:08.256Z,12.44
2019-03-31T20:17:39.285Z,12.39
2019-03-31T20:20:10.273Z,12.30
2019-03-31T20:22:53.561Z,12.18
2019-03-31T20:25:24.535Z,12.12
2019-03-31T20:27:59.745Z,12.10
2019-03-31T20:30:30.861Z,12.08
2019-03-31T20:33:18.047Z,12.00
2019-03-31T20:35:49.088Z,11.86
2019-03-31T20:38:25.837Z,11.52
2019-03-31T20:40:56.873Z,11.35
2019-03-31T20:43:39.829Z,11.15
2019-03-31T20:46:09.198Z,11.08
2019-03-31T20:48:38.718Z,11.06
2019-03-31T20:51:08.132Z,11.02
2019-03-31T20:53:37.596Z,11.04
2019-03-31T20:56:07.034Z,10.98
2019-03-31T20:58:36.470Z,10.91
2019-03-31T21:01:05.891Z,10.91
2019-03-31T21:03:35.372Z,11.01
2019-03-31T21:06:04.931Z,11.08
2019-03-31T21:08:34.438Z,11.15
2019-03-31T21:11:03.893Z,11.18
2019-03-31T21:13:33.323Z,11.09
2019-03-31T21:16:02.753Z,10.98
2019-03-31T21:18:32.203Z,10.84
2019-03-31T21:21:01.709Z,10.69
2019-03-31T21:23:31.086Z,10.65
2019-03-31T21:26:00.552Z,10.54
2019-03-31T21:28:29.998Z,10.49
2019-03-31T21:30:59.457Z,10.41
2019-03-31T21:33:29.061Z,10.22
2019-03-31T21:35:58.540Z,10.08
2019-03-31T21:38:28.019Z,10.10
2019-03-31T21:40:57.437Z,10.17
2019-03-31T21:43:26.882Z,10.09
2019-03-31T21:45:56.271Z,10.03
2019-03-31T21:48:25.707Z,10.09
2019-03-31T21:50:55.155Z,10.09
2019-03-31T21:53:24.598Z,9.95
2019-03-31T21:55:54.054Z,9.84
2019-03-31T21:58:23.502Z,9.75
2019-03-31T22:00:55.103Z,9.76
2019-03-31T22:03:24.654Z,9.67
2019-03-31T22:05:54.117Z,9.63
2019-03-31T22:08:23.554Z,9.64
2019-03-31T22:10:53.009Z,9.71
2019-03-31T22:13:22.439Z,9.74
2019-03-31T22:15:51.808Z,9.81
2019-03-31T22:18:21.452Z,9.78
2019-03-31T22:20:50.834Z,9.69
2019-03-31T22:23:20.188Z,9.58
2019-03-31T22:25:49.611Z,9.55
2019-03-31T22:28:19.074Z,9.45
2019-03-31T22:30:48.509Z,9.36
2019-03-31T22:33:17.939Z,9.34
2019-03-31T22:36:05.266Z,9.28
2019-03-31T22:38:34.771Z,9.26
2019-03-31T22:41:04.480Z,9.17
2019-03-31T22:43:33.897Z,9.15
2019-03-31T22:46:03.502Z,9.17
2019-03-31T22:48:32.973Z,9.06
2019-03-31T22:51:02.411Z,8.98
2019-03-31T22:53:31.885Z,8.94
2019-03-31T22:56:01.288Z,8.91
2019-03-31T22:58:30.746Z,8.85
2019-03-31T23:01:00.210Z,8.75
2019-03-31T23:03:29.726Z,8.66
2019-03-31T23:05:59.147Z,8.54
2019-03-31T23:08:28.623Z,8.46
2019-03-31T23:10:58.039Z,8.45
2019-03-31T23:13:27.542Z,8.41
2019-03-31T23:15:56.909Z,8.24
2019-03-31T23:18:26.349Z,8.07
2019-03-31T23:20:55.727Z,7.99
2019-03-31T23:23:25.178Z,7.97
2019-03-31T23:25:54.557Z,7.89
2019-03-31T23:28:24.061Z,7.82
2019-03-31T23:30:53.493Z,7.71
2019-03-31T23:33:22.922Z,7.64
2019-03-31T23:35:52.404Z,7.58
2019-03-31T23:38:21.915Z,7.61
2019-03-31T23:40:51.320Z,7.61
2019-03-31T23:43:20.782Z,7.77
2019-03-31T23:45:50.259Z,7.77
2019-03-31T23:48:19.866Z,7.76
2019-03-31T23:50:49.336Z,7.80
2019-03-31T23:53:18.905Z,7.78
2019-03-31T23:55:48.343Z,7.79
2019-03-31T23:58:17.186Z,7.80
